Time;durP1;ratioP1;P1;durP2;ratioP2;P2;SDS_P1;SDS_P2;PMS_P1;PMS_P2;Temp;Humidity;BMP_temperature;BMP_pressure;BME280_temperature;BME280_humidity;BME280_pressure;Samples;Min_cycle;Max_cycle;Signal;HPM_P1;HPM_P2
2022/07/19 00:02:17;;;;;;;3.25;1.73;;;20.70;54.00;;;;;;5053652;28;20148;-62
2022/07/19 00:04:43;;;;;;;3.67;1.98;;;20.60;54.00;;;;;;5054628;28;20050;-61
2022/07/19 00:07:08;;;;;;;4.72;2.00;;;20.60;53.90;;;;;;5051565;28;20086;-63
2022/07/19 00:09:34;;;;;;;3.42;2.15;;;20.60;54.00;;;;;;5053250;28;20041;-62
2022/07/19 00:12:00;;;;;;;2.63;2.20;;;20.60;54.20;;;;;;5055150;28;20060;-64
2022/07/19 00:14:25;;;;;;;3.20;2.05;;;20.50;54.30;;;;;;5054871;28;20033;-63
2022/07/19 00:16:51;;;;;;;2.55;2.15;;;20.50;54.40;;;;;;5056906;28;20055;-62
2022/07/19 00:19:17;;;;;;;2.45;2.05;;;20.40;54.20;;;;;;5053674;28;20032;-63
2022/07/19 00:21:42;;;;;;;2.22;2.10;;;20.40;54.20;;;;;;5052999;28;20694;-60
2022/07/19 00:24:08;;;;;;;2.25;2.05;;;20.30;54.50;;;;;;5053709;28;20166;-61
2022/07/19 00:26:34;;;;;;;3.45;2.20;;;20.30;55.20;;;;;;5053365;28;20055;-64
2022/07/19 00:29:01;;;;;;;7.57;2.40;;;20.20;54.40;;;;;;5052825;28;20087;-62
2022/07/19 00:31:27;;;;;;;2.40;2.20;;;20.20;54.60;;;;;;5052240;28;20063;-60
2022/07/19 00:33:53;;;;;;;4.05;2.13;;;20.20;54.90;;;;;;5054560;28;20496;-60
2022/07/19 00:36:19;;;;;;;2.67;2.47;;;20.10;54.90;;;;;;5054188;28;20064;-62
2022/07/19 00:38:45;;;;;;;3.65;2.40;;;20.10;55.00;;;;;;5052402;28;20059;-60
2022/07/19 00:41:11;;;;;;;3.40;2.25;;;20.00;55.10;;;;;;5052514;28;20595;-62
2022/07/19 00:43:40;;;;;;;3.22;2.25;;;19.90;55.10;;;;;;5052718;28;20037;-62
2022/07/19 00:46:15;;;;;;;2.50;2.13;;;19.80;55.50;;;;;;5051904;28;20033;-63
2022/07/19 00:48:41;;;;;;;;;;;19.80;56.00;;;;;;5051743;28;20068;-63
2022/07/19 00:51:12;;;;;;;2.58;2.00;;;19.70;55.10;;;;;;5054968;28;19967;-64
2022/07/19 00:53:39;;;;;;;5.00;1.98;;;19.70;55.10;;;;;;5052057;28;20060;-59
2022/07/19 00:56:06;;;;;;;2.42;2.17;;;19.60;55.50;;;;;;5052655;28;20033;-63
2022/07/19 00:58:34;;;;;;;2.60;1.98;;;19.50;55.80;;;;;;5052830;28;20045;-60
2022/07/19 01:01:01;;;;;;;5.13;2.33;;;19.50;56.00;;;;;;5055917;28;20632;-62
2022/07/19 01:03:27;;;;;;;2.38;2.17;;;19.50;56.10;;;;;;5054547;28;20043;-61
2022/07/19 01:05:53;;;;;;;2.88;2.40;;;19.40;56.00;;;;;;5054992;28;20029;-62
2022/07/19 01:08:18;;;;;;;3.97;2.30;;;19.40;56.10;;;;;;5053112;28;20029;-62
2022/07/19 01:10:44;;;;;;;2.95;2.22;;;19.50;56.20;;;;;;5052690;28;20040;-62
2022/07/19 01:13:13;;;;;;;3.30;2.05;;;19.40;56.10;;;;;;5053624;28;20520;-63
2022/07/19 01:15:41;;;;;;;4.00;2.10;;;19.40;56.30;;;;;;5052188;28;20040;-63
2022/07/19 01:18:08;;;;;;;2.63;2.38;;;19.40;56.10;;;;;;5053004;28;20071;-60
2022/07/19 01:20:34;;;;;;;2.70;2.40;;;19.40;56.10;;;;;;5053093;28;20489;-60
2022/07/19 01:23:00;;;;;;;5.45;2.50;;;19.40;56.30;;;;;;5057909;28;20044;-61
2022/07/19 01:25:29;;;;;;;2.95;2.65;;;19.40;56.30;;;;;;5054355;28;20076;-60
2022/07/19 01:27:55;;;;;;;4.80;2.60;;;19.30;56.60;;;;;;5055327;28;20036;-62
2022/07/19 01:30:22;;;;;;;4.50;2.40;;;19.30;56.60;;;;;;5053957;28;20029;-63
2022/07/19 01:32:49;;;;;;;2.35;2.13;;;19.20;56.80;;;;;;5052808;28;20572;-63
2022/07/19 01:35:15;;;;;;;2.83;2.33;;;19.20;56.80;;;;;;5054545;28;20040;-63
2022/07/19 01:37:41;;;;;;;2.22;2.10;;;19.10;56.90;;;;;;5051793;28;20045;-61
2022/07/19 01:40:10;;;;;;;4.43;2.28;;;19.00;57.00;;;;;;5051987;28;20519;-61
2022/07/19 01:42:35;;;;;;;2.47;2.00;;;18.90;57.00;;;;;;5053050;28;20050;-63
2022/07/19 01:45:02;;;;;;;2.92;2.30;;;18.80;57.00;;;;;;5056749;28;20036;-60
2022/07/19 01:47:28;;;;;;;2.28;2.17;;;18.70;57.10;;;;;;5056526;28;20039;-62
2022/07/19 01:49:53;;;;;;;2.70;2.42;;;18.70;57.30;;;;;;5057572;28;20032;-61
2022/07/19 01:52:19;;;;;;;2.85;2.20;;;18.60;57.60;;;;;;5055335;28;20045;-60
2022/07/19 01:54:45;;;;;;;2.72;2.40;;;18.50;57.80;;;;;;5051844;28;20083;-60
2022/07/19 01:57:10;;;;;;;2.63;2.20;;;18.50;57.80;;;;;;5053338;28;20047;-60
2022/07/19 01:59:37;;;;;;;2.60;2.40;;;18.50;58.10;;;;;;5053218;28;20032;-62
2022/07/19 02:02:03;;;;;;;3.75;2.67;;;18.50;58.50;;;;;;5051865;28;20565;-60
2022/07/19 02:04:29;;;;;;;2.20;2.00;;;18.40;58.40;;;;;;5052100;28;20032;-62
2022/07/19 02:06:55;;;;;;;2.88;2.55;;;18.40;58.40;;;;;;5054349;28;20025;-61
2022/07/19 02:09:20;;;;;;;2.47;2.20;;;18.40;58.40;;;;;;5054235;28;20082;-62
2022/07/19 02:11:46;;;;;;;2.20;2.10;;;18.50;58.30;;;;;;5054177;28;20041;-61
2022/07/19 02:14:12;;;;;;;2.83;2.53;;;18.40;58.20;;;;;;5054856;28;20045;-62
2022/07/19 02:16:38;;;;;;;3.90;3.10;;;18.50;58.30;;;;;;5050672;28;20038;-60
2022/07/19 02:19:05;;;;;;;2.95;2.65;;;18.40;58.30;;;;;;5053334;28;20041;-61
2022/07/19 02:21:32;;;;;;;6.07;2.58;;;18.50;58.30;;;;;;5053543;28;20058;-62
2022/07/19 02:23:58;;;;;;;2.53;2.20;;;18.40;58.30;;;;;;5056259;28;20124;-62
2022/07/19 02:26:24;;;;;;;3.28;2.50;;;18.40;58.40;;;;;;5051132;28;20299;-62
2022/07/19 02:28:49;;;;;;;2.70;2.50;;;18.40;58.40;;;;;;5054654;28;20076;-60
2022/07/19 02:31:15;;;;;;;2.97;2.63;;;18.30;58.40;;;;;;5054742;28;20405;-61
2022/07/19 02:33:41;;;;;;;4.43;2.40;;;18.20;58.30;;;;;;5052027;28;20484;-62
2022/07/19 02:36:06;;;;;;;2.78;2.40;;;18.20;58.40;;;;;;5051961;28;20889;-60
2022/07/19 02:38:32;;;;;;;3.75;2.30;;;18.10;58.30;;;;;;5050714;28;20036;-62
2022/07/19 02:40:58;;;;;;;3.05;2.40;;;18.10;58.50;;;;;;5054048;28;20040;-62
2022/07/19 02:43:24;;;;;;;3.63;2.38;;;18.10;58.50;;;;;;5050723;28;20081;-58
2022/07/19 02:45:49;;;;;;;3.58;2.50;;;18.10;58.60;;;;;;5053198;28;20040;-62
2022/07/19 02:48:15;;;;;;;4.50;2.35;;;18.10;58.70;;;;;;5054881;28;20511;-60
2022/07/19 02:50:42;;;;;;;3.17;2.65;;;18.10;58.70;;;;;;5052598;28;20075;-61
2022/07/19 02:53:07;;;;;;;4.32;2.50;;;18.10;58.80;;;;;;5052078;28;20385;-62
2022/07/19 02:55:33;;;;;;;3.00;2.55;;;18.00;58.80;;;;;;5052403;28;20072;-62
2022/07/19 02:57:59;;;;;;;2.95;2.70;;;18.00;58.90;;;;;;5053692;28;20033;-60
2022/07/19 03:00:24;;;;;;;3.72;2.40;;;18.00;58.90;;;;;;5051437;28;20033;-62
2022/07/19 03:02:50;;;;;;;2.83;2.55;;;17.90;59.00;;;;;;5054690;28;20134;-61
2022/07/19 03:05:16;;;;;;;3.53;2.53;;;17.90;59.10;;;;;;5052888;28;20404;-59
2022/07/19 03:07:41;;;;;;;3.38;2.53;;;17.90;59.20;;;;;;5051119;28;20513;-63
2022/07/19 03:10:08;;;;;;;3.95;2.58;;;17.90;59.30;;;;;;5051333;28;20492;-59
2022/07/19 03:12:34;;;;;;;2.53;2.33;;;17.80;59.30;;;;;;5051095;28;20055;-63
2022/07/19 03:14:59;;;;;;;2.47;2.28;;;17.80;59.40;;;;;;5053078;28;20037;-62
2022/07/19 03:17:25;;;;;;;2.65;2.28;;;17.80;59.40;;;;;;5054634;28;20025;-62
2022/07/19 03:19:50;;;;;;;4.07;2.70;;;17.80;59.40;;;;;;5053575;28;20112;-63
2022/07/19 03:22:16;;;;;;;2.58;2.38;;;17.80;59.40;;;;;;5055944;28;20036;-62
2022/07/19 03:24:42;;;;;;;2.60;2.40;;;17.80;59.50;;;;;;5054667;28;20393;-62
2022/07/19 03:27:07;;;;;;;3.33;2.85;;;17.80;59.60;;;;;;5054943;28;20543;-62
2022/07/19 03:29:33;;;;;;;3.45;2.50;;;17.70;59.50;;;;;;5055936;28;21258;-61
2022/07/19 03:31:58;;;;;;;4.22;2.70;;;17.70;59.60;;;;;;5061040;28;20543;-62
2022/07/19 03:34:25;;;;;;;3.92;3.17;;;17.70;59.60;;;;;;5059800;28;20483;-62
2022/07/19 03:36:50;;;;;;;4.47;2.85;;;17.60;59.70;;;;;;5059895;28;20407;-62
2022/07/19 03:39:16;;;;;;;2.78;2.58;;;17.60;59.70;;;;;;5060583;28;20025;-60
2022/07/19 03:41:42;;;;;;;3.15;2.85;;;17.50;59.70;;;;;;5060337;28;20056;-62
2022/07/19 03:44:07;;;;;;;4.20;2.92;;;17.50;59.90;;;;;;5060415;28;20029;-62
2022/07/19 03:46:33;;;;;;;2.90;2.70;;;17.40;59.90;;;;;;5058505;28;20040;-62
2022/07/19 03:48:59;;;;;;;4.30;2.83;;;17.40;60.00;;;;;;5060423;28;20041;-63
2022/07/19 03:51:24;;;;;;;3.22;2.97;;;17.30;60.10;;;;;;5056677;28;20044;-62
2022/07/19 03:53:50;;;;;;;3.55;2.45;;;17.20;60.30;;;;;;5058010;28;20029;-60
2022/07/19 03:56:17;;;;;;;4.30;3.10;;;17.20;60.50;;;;;;5057630;28;20036;-62
2022/07/19 03:58:44;;;;;;;5.13;3.00;;;17.20;60.70;;;;;;5057793;28;20029;-62
2022/07/19 04:01:10;;;;;;;4.43;2.90;;;17.10;60.90;;;;;;5059071;28;20044;-60
2022/07/19 04:03:40;;;;;;;7.82;3.10;;;17.20;61.00;;;;;;5058897;28;20457;-61
2022/07/19 04:06:06;;;;;;;4.20;2.70;;;17.10;61.30;;;;;;5057644;28;20028;-62
2022/07/19 04:08:33;;;;;;;4.13;2.85;;;17.10;61.00;;;;;;5058771;28;20044;-62
2022/07/19 04:10:58;;;;;;;2.97;2.72;;;17.10;61.80;;;;;;5056610;28;20386;-61
2022/07/19 04:13:24;;;;;;;4.30;2.97;;;17.00;61.00;;;;;;5059904;28;20043;-63
2022/07/19 04:15:50;;;;;;;5.47;2.95;;;17.00;61.30;;;;;;5052660;28;20056;-61
2022/07/19 04:18:16;;;;;;;4.35;2.90;;;16.90;61.50;;;;;;5054507;28;20051;-61
2022/07/19 04:20:42;;;;;;;2.90;2.63;;;16.90;61.80;;;;;;5056028;28;20461;-61
2022/07/19 04:23:08;;;;;;;8.02;3.22;;;16.90;62.10;;;;;;5054982;28;20041;-59
2022/07/19 04:25:33;;;;;;;4.50;2.80;;;16.90;62.20;;;;;;5055374;28;20490;-61
2022/07/19 04:27:59;;;;;;;5.63;2.95;;;16.90;62.20;;;;;;5057400;28;21993;-60
2022/07/19 04:30:25;;;;;;;4.80;2.60;;;16.90;62.40;;;;;;5054724;28;20117;-61
2022/07/19 04:32:50;;;;;;;5.13;3.15;;;17.00;62.40;;;;;;5054659;28;20037;-60
2022/07/19 04:35:16;;;;;;;5.63;2.90;;;17.00;62.40;;;;;;5055626;28;20492;-61
2022/07/19 04:37:42;;;;;;;5.18;3.38;;;17.00;62.30;;;;;;5055912;28;20372;-58
2022/07/19 04:40:09;;;;;;;5.75;3.30;;;17.00;62.30;;;;;;5056902;28;20521;-62
2022/07/19 04:42:36;;;;;;;5.78;2.80;;;17.00;62.30;;;;;;5057113;28;20067;-61
2022/07/19 04:45:02;;;;;;;6.03;3.10;;;17.10;62.10;;;;;;5054606;28;20098;-60
2022/07/19 04:47:27;;;;;;;10.05;3.70;;;17.20;62.40;;;;;;5052665;28;20116;-58
2022/07/19 04:49:53;;;;;;;5.32;3.50;;;17.20;62.30;;;;;;5054832;28;20587;-60
2022/07/19 04:52:19;;;;;;;6.43;3.33;;;17.20;62.30;;;;;;5054524;28;20033;-59
2022/07/19 04:54:44;;;;;;;5.63;3.30;;;17.30;62.30;;;;;;5055209;28;20517;-62
2022/07/19 04:57:10;;;;;;;6.30;3.70;;;17.30;62.40;;;;;;5057143;28;20025;-59
2022/07/19 04:59:36;;;;;;;7.80;3.90;;;17.30;62.40;;;;;;5053472;28;20028;-60
2022/07/19 05:02:01;;;;;;;8.95;3.92;;;17.40;62.50;;;;;;5055811;28;20354;-62
2022/07/19 05:04:27;;;;;;;3.60;3.30;;;17.40;62.60;;;;;;5054648;28;20151;-62
2022/07/19 05:06:56;;;;;;;3.83;3.42;;;17.40;62.70;;;;;;5054872;28;20143;-61
2022/07/19 05:09:24;;;;;;;4.90;3.55;;;17.40;63.00;;;;;;5055238;28;20045;-61
2022/07/19 05:11:50;;;;;;;7.43;4.00;;;17.40;63.10;;;;;;5055090;28;20123;-59
2022/07/19 05:14:15;;;;;;;4.20;3.83;;;17.40;63.30;;;;;;5057650;28;20190;-62
2022/07/19 05:16:41;;;;;;;5.25;3.85;;;17.40;63.50;;;;;;5052987;28;20552;-61
2022/07/19 05:19:07;;;;;;;5.25;4.13;;;17.40;63.80;;;;;;5054891;28;20124;-60
2022/07/19 05:21:32;;;;;;;8.45;4.25;;;17.40;63.70;;;;;;5053260;28;20507;-61
2022/07/19 05:23:58;;;;;;;6.10;4.15;;;17.50;63.80;;;;;;5052460;28;20032;-62
2022/07/19 05:26:23;;;;;;;6.00;4.28;;;17.60;64.30;;;;;;5053753;28;20036;-61
2022/07/19 05:28:49;;;;;;;6.53;3.97;;;17.70;64.30;;;;;;5052990;28;20041;-62
2022/07/19 05:31:15;;;;;;;7.57;4.35;;;17.80;64.20;;;;;;5054445;28;20033;-63
2022/07/19 05:33:41;;;;;;;4.70;4.20;;;17.90;64.10;;;;;;5052505;28;20033;-63
2022/07/19 05:36:10;;;;;;;8.10;4.28;;;18.00;64.10;;;;;;5054747;28;20222;-59
2022/07/19 05:38:39;;;;;;;7.22;4.32;;;18.10;63.70;;;;;;5054532;28;20059;-61
2022/07/19 05:41:10;;;;;;;12.57;4.28;;;18.20;63.50;;;;;;5053814;28;20425;-60
2022/07/19 05:43:37;;;;;;;4.75;4.15;;;18.30;63.30;;;;;;5055172;28;20045;-61
2022/07/19 05:46:03;;;;;;;7.00;3.97;;;18.50;62.70;;;;;;5054254;28;20040;-61
2022/07/19 05:48:29;;;;;;;5.63;4.30;;;18.60;62.30;;;;;;5052708;28;20032;-61
2022/07/19 05:50:55;;;;;;;5.63;3.80;;;18.70;61.70;;;;;;5054866;28;20041;-61
2022/07/19 05:53:21;;;;;;;8.10;3.67;;;18.90;61.50;;;;;;5050184;28;20031;-62
2022/07/19 05:55:47;;;;;;;4.10;3.72;;;19.00;61.20;;;;;;5052690;28;20032;-62
2022/07/19 05:58:12;;;;;;;5.25;3.70;;;19.10;60.80;;;;;;5054699;28;20024;-62
2022/07/19 06:00:38;;;;;;;5.30;4.50;;;19.20;60.80;;;;;;5054548;28;20443;-61
2022/07/19 06:03:04;;;;;;;4.57;3.67;;;19.30;60.60;;;;;;5053089;28;20059;-61
2022/07/19 06:05:29;;;;;;;5.10;3.58;;;19.50;60.90;;;;;;5053905;28;20484;-62
2022/07/19 06:07:55;;;;;;;5.65;3.80;;;19.60;60.50;;;;;;5053435;28;20025;-61
2022/07/19 06:10:20;;;;;;;3.95;3.65;;;19.70;60.00;;;;;;5053467;28;20062;-62
2022/07/19 06:12:46;;;;;;;9.23;4.10;;;19.80;60.50;;;;;;5048264;28;20045;-62
2022/07/19 06:15:12;;;;;;;4.80;3.67;;;19.90;59.40;;;;;;5055971;28;20607;-61
2022/07/19 06:17:38;;;;;;;4.93;3.65;;;20.10;59.20;;;;;;5052364;28;20041;-63
2022/07/19 06:20:04;;;;;;;8.63;4.35;;;20.20;59.20;;;;;;5054406;28;20029;-58
2022/07/19 06:22:33;;;;;;;5.95;4.03;;;20.30;59.10;;;;;;5052714;28;20032;-61
2022/07/19 06:24:59;;;;;;;6.68;4.22;;;20.40;59.10;;;;;;5053942;28;20087;-60
2022/07/19 06:27:24;;;;;;;5.88;3.78;;;20.50;58.90;;;;;;5052795;28;20580;-61
2022/07/19 06:29:50;;;;;;;4.03;3.33;;;20.50;58.60;;;;;;5055492;28;20032;-62
2022/07/19 06:32:16;;;;;;;6.55;3.30;;;20.60;58.70;;;;;;5057350;28;20498;-60
2022/07/19 06:34:41;;;;;;;7.45;4.15;;;20.70;58.40;;;;;;5055413;28;20060;-62
2022/07/19 06:37:07;;;;;;;7.00;4.03;;;20.80;58.10;;;;;;5056091;28;20033;-62
2022/07/19 06:39:32;;;;;;;6.68;3.55;;;20.90;58.00;;;;;;5050332;28;20047;-63
2022/07/19 06:41:58;;;;;;;5.18;3.25;;;21.00;57.80;;;;;;5053791;28;20505;-63
2022/07/19 06:44:24;;;;;;;6.43;3.38;;;21.00;57.50;;;;;;5049884;28;20058;-63
2022/07/19 06:46:49;;;;;;;4.65;3.25;;;21.10;57.50;;;;;;5051412;28;21008;-63
2022/07/19 06:49:15;;;;;;;5.20;3.15;;;21.20;57.40;;;;;;5053303;28;20137;-63
2022/07/19 06:51:41;;;;;;;3.92;3.33;;;21.30;57.20;;;;;;5052679;28;20040;-62
2022/07/19 06:54:06;;;;;;;3.65;3.35;;;21.40;57.10;;;;;;5050728;28;20047;-63
2022/07/19 06:56:32;;;;;;;5.82;3.30;;;21.50;57.00;;;;;;5053817;28;20048;-62
2022/07/19 06:58:57;;;;;;;5.07;3.15;;;21.60;57.10;;;;;;5052504;28;20170;-62
2022/07/19 07:01:23;;;;;;;7.88;2.85;;;21.70;56.90;;;;;;5054035;28;20029;-61
2022/07/19 07:03:49;;;;;;;3.45;3.15;;;21.80;56.90;;;;;;5052020;28;20060;-62
2022/07/19 07:06:14;;;;;;;4.85;2.70;;;21.90;56.50;;;;;;5053315;28;20078;-61
2022/07/19 07:08:40;;;;;;;9.50;3.08;;;22.00;56.20;;;;;;5052143;28;20044;-62
2022/07/19 07:11:06;;;;;;;3.55;2.75;;;22.10;56.10;;;;;;5050559;28;20424;-61
2022/07/19 07:13:32;;;;;;;5.32;2.30;;;22.20;56.00;;;;;;5051874;28;20099;-61
2022/07/19 07:15:57;;;;;;;7.68;2.60;;;22.30;55.90;;;;;;5050597;28;20079;-61
2022/07/19 07:18:23;;;;;;;3.95;2.38;;;22.40;55.80;;;;;;5053686;28;20026;-62
2022/07/19 07:20:49;;;;;;;5.53;2.35;;;22.50;55.80;;;;;;5052671;28;20516;-62
2022/07/19 07:23:14;;;;;;;6.50;2.50;;;22.60;55.70;;;;;;5053592;28;20040;-62
2022/07/19 07:25:40;;;;;;;3.35;2.08;;;22.70;55.60;;;;;;5050069;28;20036;-62
2022/07/19 07:28:05;;;;;;;2.85;2.20;;;22.90;55.00;;;;;;5054991;28;20030;-62
2022/07/19 07:30:31;;;;;;;4.47;1.95;;;23.00;54.70;;;;;;5052892;28;20144;-62
2022/07/19 07:32:57;;;;;;;3.50;2.03;;;23.10;54.60;;;;;;5053577;28;20114;-61
2022/07/19 07:35:23;;;;;;;3.40;2.10;;;23.30;54.40;;;;;;5052747;28;20087;-62
2022/07/19 07:37:48;;;;;;;5.28;2.00;;;23.40;53.80;;;;;;5050522;28;20413;-61
2022/07/19 07:40:14;;;;;;;7.63;1.88;;;23.50;53.70;;;;;;5054804;28;20534;-61
2022/07/19 07:42:40;;;;;;;4.15;2.00;;;23.70;53.70;;;;;;5052985;28;20037;-60
2022/07/19 07:45:07;;;;;;;3.40;1.80;;;23.80;53.00;;;;;;5052695;28;20036;-59
2022/07/19 07:47:32;;;;;;;5.97;2.05;;;23.90;53.00;;;;;;5054493;28;20037;-61
2022/07/19 07:49:58;;;;;;;1.77;1.58;;;24.10;52.50;;;;;;5050348;28;20086;-61
2022/07/19 07:52:24;;;;;;;2.95;2.00;;;24.20;52.90;;;;;;5052227;28;20032;-62
2022/07/19 07:54:50;;;;;;;1.85;1.50;;;24.30;52.70;;;;;;5053097;28;20115;-60
2022/07/19 07:57:16;;;;;;;5.00;1.52;;;24.50;51.80;;;;;;5051681;28;21227;-62
2022/07/19 07:59:42;;;;;;;6.53;1.85;;;24.60;51.40;;;;;;5052015;28;20025;-62
2022/07/19 08:02:07;;;;;;;5.35;1.63;;;24.80;51.20;;;;;;5049619;28;20574;-61
2022/07/19 08:04:33;;;;;;;2.08;1.77;;;24.90;50.70;;;;;;5054275;28;20166;-61
2022/07/19 08:06:58;;;;;;;1.73;1.60;;;25.10;51.00;;;;;;5050637;28;20263;-62
2022/07/19 08:09:24;;;;;;;1.48;1.38;;;25.20;50.40;;;;;;5056405;28;20040;-61
2022/07/19 08:11:49;;;;;;;2.75;1.30;;;25.40;49.20;;;;;;5054126;28;20336;-62
2022/07/19 08:14:15;;;;;;;2.33;1.38;;;25.60;49.10;;;;;;5051936;28;20035;-62
2022/07/19 08:16:41;;;;;;;2.70;1.40;;;25.70;48.50;;;;;;5055612;28;20036;-60
2022/07/19 08:19:07;;;;;;;1.70;1.20;;;25.90;48.30;;;;;;5058225;28;20027;-62
2022/07/19 08:21:32;;;;;;;1.25;1.15;;;26.00;47.70;;;;;;5059051;28;20041;-61
2022/07/19 08:23:58;;;;;;;1.88;1.40;;;26.20;47.50;;;;;;5059011;28;20546;-62
2022/07/19 08:26:23;;;;;;;1.30;1.20;;;26.30;47.30;;;;;;5058405;28;20036;-64
2022/07/19 08:28:49;;;;;;;2.13;1.20;;;26.50;47.10;;;;;;5056015;28;20063;-61
2022/07/19 08:31:15;;;;;;;3.25;1.38;;;26.70;46.70;;;;;;5060406;28;20409;-61
2022/07/19 08:33:41;;;;;;;2.40;1.23;;;26.80;46.40;;;;;;5059445;28;20063;-60
2022/07/19 08:36:09;;;;;;;1.98;1.42;;;27.00;46.00;;;;;;5058390;28;20044;-61
2022/07/19 08:38:36;;;;;;;1.92;1.20;;;27.10;45.50;;;;;;5058390;28;20034;-59
2022/07/19 08:41:02;;;;;;;1.85;1.35;;;27.30;45.40;;;;;;5052892;28;20561;-60
2022/07/19 08:43:28;;;;;;;2.42;1.17;;;27.40;45.40;;;;;;5056508;28;20028;-61
2022/07/19 08:45:53;;;;;;;1.67;1.20;;;27.60;45.20;;;;;;5058977;28;20024;-62
2022/07/19 08:48:20;;;;;;;1.48;1.20;;;27.70;44.50;;;;;;5058065;28;20056;-62
2022/07/19 08:50:47;;;;;;;1.30;1.20;;;27.90;44.20;;;;;;5056859;28;20102;-61
2022/07/19 08:53:14;;;;;;;1.95;1.00;;;28.00;44.00;;;;;;5057608;28;20041;-62
2022/07/19 08:55:40;;;;;;;1.70;1.08;;;28.10;43.10;;;;;;5059532;28;20044;-61
2022/07/19 08:58:06;;;;;;;2.53;1.10;;;28.20;43.20;;;;;;5060408;28;20378;-60
2022/07/19 09:00:33;;;;;;;5.45;1.00;;;28.40;43.00;;;;;;5058066;28;20033;-60
2022/07/19 09:03:04;;;;;;;1.48;1.38;;;28.50;43.00;;;;;;5058468;28;20496;-59
2022/07/19 09:05:30;;;;;;;3.97;1.30;;;28.60;42.80;;;;;;5059071;28;20445;-62
2022/07/19 09:08:10;;;;;;;2.60;1.13;;;28.80;42.30;;;;;;5058831;28;20083;-61
2022/07/19 09:10:38;;;;;;;1.20;1.10;;;28.90;41.50;;;;;;5058126;28;20547;-65
2022/07/19 09:13:12;;;;;;;1.55;1.08;;;29.10;42.00;;;;;;5059608;28;20144;-62
2022/07/19 09:15:49;;;;;;;2.63;1.30;;;29.30;40.90;;;;;;5057732;28;20511;-62
2022/07/19 09:18:35;;;;;;;1.45;1.08;;;29.40;40.70;;;;;;5058513;28;20123;-63
2022/07/19 09:21:05;;;;;;;2.50;1.27;;;29.60;39.00;;;;;;5059063;28;20143;-63
2022/07/19 09:23:32;;;;;;;1.20;1.10;;;29.70;39.40;;;;;;5060027;28;20032;-62
2022/07/19 09:25:59;;;;;;;1.83;1.17;;;29.80;39.20;;;;;;5056340;28;20167;-62
2022/07/19 09:28:27;;;;;;;3.42;1.30;;;29.90;39.00;;;;;;5054902;28;20056;-62
2022/07/19 09:30:57;;;;;;;1.40;1.30;;;30.10;39.30;;;;;;5057461;28;20039;-62
2022/07/19 09:33:28;;;;;;;1.63;1.20;;;30.20;38.30;;;;;;5059767;28;20033;-63
2022/07/19 09:36:02;;;;;;;2.38;1.23;;;30.30;38.00;;;;;;5061620;28;20035;-64
2022/07/19 09:38:33;;;;;;;2.20;1.50;;;30.40;37.70;;;;;;5058479;28;20032;-62
2022/07/19 09:41:15;;;;;;;2.15;1.30;;;30.50;37.20;;;;;;5058024;28;20113;-63
2022/07/19 09:43:53;;;;;;;1.45;1.20;;;30.70;37.00;;;;;;5057588;28;20041;-62
2022/07/19 09:46:35;;;;;;;1.88;1.00;;;30.80;36.70;;;;;;5058141;28;20070;-62
2022/07/19 09:49:02;;;;;;;1.50;1.40;;;30.90;36.70;;;;;;5057408;28;20030;-62
2022/07/19 09:51:28;;;;;;;2.88;1.13;;;31.00;36.50;;;;;;5056314;28;20057;-60
2022/07/19 09:53:55;;;;;;;1.30;1.20;;;31.10;36.70;;;;;;5052801;28;20076;-62
2022/07/19 09:56:21;;;;;;;1.73;1.48;;;31.20;36.90;;;;;;5053149;28;20103;-62
2022/07/19 09:58:47;;;;;;;1.52;1.20;;;31.30;36.70;;;;;;5050612;28;20059;-63
2022/07/19 10:01:13;;;;;;;1.88;1.20;;;31.40;36.50;;;;;;5055797;28;20064;-62
2022/07/19 10:03:40;;;;;;;5.13;1.38;;;31.50;35.80;;;;;;5057194;28;20040;-63
2022/07/19 10:06:06;;;;;;;2.28;1.40;;;31.60;35.60;;;;;;5055722;28;21188;-62
2022/07/19 10:08:32;;;;;;;2.30;1.20;;;31.70;35.10;;;;;;5053643;28;20033;-63
2022/07/19 10:10:57;;;;;;;1.10;1.00;;;31.80;35.00;;;;;;5051479;28;20102;-61
2022/07/19 10:13:24;;;;;;;3.28;1.23;;;31.90;34.60;;;;;;5056197;28;20063;-63
2022/07/19 10:15:54;;;;;;;1.60;1.27;;;31.90;33.90;;;;;;5057838;28;20580;-63
2022/07/19 10:18:28;;;;;;;1.45;1.35;;;32.00;33.70;;;;;;5055079;28;20493;-63
2022/07/19 10:20:54;;;;;;;1.33;1.08;;;32.10;33.40;;;;;;5057820;28;20029;-63
2022/07/19 10:23:28;;;;;;;1.85;1.20;;;32.20;33.40;;;;;;5055125;28;20109;-63
2022/07/19 10:25:54;;;;;;;1.25;1.15;;;32.40;32.60;;;;;;5055029;28;20029;-64
2022/07/19 10:28:37;;;;;;;1.75;1.40;;;32.40;33.50;;;;;;5056903;28;20056;-63
2022/07/19 10:31:23;;;;;;;1.25;1.15;;;32.50;32.70;;;;;;5054113;28;20056;-63
2022/07/19 10:34:02;;;;;;;1.65;1.13;;;32.60;33.10;;;;;;5055434;28;20044;-63
2022/07/19 10:36:38;;;;;;;2.45;1.20;;;32.70;31.80;;;;;;5055445;28;20044;-62
2022/07/19 10:39:30;;;;;;;1.52;1.25;;;32.70;31.50;;;;;;5053309;28;20396;-63
2022/07/19 10:42:21;;;;;;;2.72;1.30;;;32.80;31.40;;;;;;5058784;28;20396;-63
2022/07/19 10:45:02;;;;;;;6.50;1.55;;;32.90;31.50;;;;;;5052438;28;20101;-64
2022/07/19 10:47:37;;;;;;;1.92;1.17;;;33.00;31.40;;;;;;5057642;28;20078;-64
2022/07/19 10:50:08;;;;;;;1.98;1.17;;;33.00;31.50;;;;;;5055203;28;20037;-64
2022/07/19 10:52:34;;;;;;;1.45;1.23;;;33.10;31.40;;;;;;5055704;28;20453;-62
2022/07/19 10:55:18;;;;;;;2.70;1.20;;;33.10;31.70;;;;;;5056627;28;20028;-63
2022/07/19 10:57:47;;;;;;;5.53;1.20;;;33.20;31.00;;;;;;5054805;28;20110;-64
2022/07/19 11:00:17;;;;;;;1.50;1.40;;;33.20;30.90;;;;;;5054611;28;20078;-63
2022/07/19 11:02:43;;;;;;;1.65;1.20;;;33.30;30.50;;;;;;5056502;28;20052;-62
2022/07/19 11:05:24;;;;;;;1.33;1.23;;;33.30;30.70;;;;;;5056811;28;20439;-63
2022/07/19 11:07:54;;;;;;;2.38;1.20;;;33.40;30.40;;;;;;5056207;28;20124;-62
2022/07/19 11:10:25;;;;;;;4.75;1.60;;;33.40;30.40;;;;;;5055020;28;20415;-63
2022/07/19 11:12:51;;;;;;;1.40;1.20;;;33.50;30.00;;;;;;5055337;28;20523;-62
2022/07/19 11:15:17;;;;;;;1.85;1.48;;;33.50;30.00;;;;;;5055342;28;20064;-63
2022/07/19 11:18:00;;;;;;;2.72;1.60;;;33.50;30.00;;;;;;5054636;28;20508;-62
2022/07/19 11:20:29;;;;;;;2.38;1.20;;;33.50;30.20;;;;;;5055268;28;20451;-64
2022/07/19 11:22:56;;;;;;;2.47;1.40;;;33.60;30.60;;;;;;5055903;28;20487;-62
2022/07/19 11:25:37;;;;;;;3.20;1.30;;;33.60;30.50;;;;;;5049665;28;20043;-62
2022/07/19 11:28:03;;;;;;;7.13;1.50;;;33.70;29.80;;;;;;5052080;28;20119;-60
2022/07/19 11:30:34;;;;;;;2.42;1.30;;;33.70;29.80;;;;;;5053140;28;20135;-62
2022/07/19 11:33:04;;;;;;;4.45;1.30;;;33.70;29.70;;;;;;5057110;28;20036;-62
2022/07/19 11:35:30;;;;;;;2.28;1.55;;;33.70;29.20;;;;;;5053604;28;20048;-62
2022/07/19 11:37:57;;;;;;;1.55;1.23;;;33.80;29.50;;;;;;5055100;28;20041;-63
2022/07/19 11:40:25;;;;;;;3.60;1.50;;;33.80;29.40;;;;;;5055145;28;20501;-62
2022/07/19 11:42:51;;;;;;;1.48;1.33;;;33.80;29.60;;;;;;5055894;28;20041;-61
2022/07/19 11:45:23;;;;;;;1.67;1.40;;;33.80;29.50;;;;;;5055516;28;20052;-63
2022/07/19 11:47:56;;;;;;;1.58;1.48;;;33.80;29.30;;;;;;5055558;28;20044;-63
2022/07/19 11:50:25;;;;;;;2.53;1.60;;;33.80;29.30;;;;;;5054714;28;20036;-62
2022/07/19 11:52:56;;;;;;;2.45;1.45;;;33.90;29.40;;;;;;5057527;28;20067;-63
2022/07/19 11:55:43;;;;;;;2.67;1.73;;;34.00;29.20;;;;;;5059353;28;20032;-63
2022/07/19 11:58:10;;;;;;;2.40;1.88;;;34.00;29.10;;;;;;5058886;28;20115;-63
2022/07/19 12:00:36;;;;;;;1.50;1.40;;;34.10;29.80;;;;;;5058252;28;20175;-63
2022/07/19 12:03:07;;;;;;;2.22;1.58;;;34.00;28.90;;;;;;5059008;28;20060;-61
2022/07/19 12:05:35;;;;;;;1.95;1.60;;;34.10;28.60;;;;;;5058143;28;20068;-62
2022/07/19 12:08:07;;;;;;;4.30;1.88;;;34.10;28.70;;;;;;5060470;28;20037;-62
2022/07/19 12:10:41;;;;;;;2.05;1.70;;;34.10;28.80;;;;;;5055998;28;20078;-62
2022/07/19 12:13:11;;;;;;;1.60;1.50;;;34.10;28.50;;;;;;5057702;28;20040;-62
2022/07/19 12:15:49;;;;;;;1.70;1.60;;;34.10;28.50;;;;;;5059812;28;20045;-62
2022/07/19 12:18:22;;;;;;;1.88;1.63;;;34.20;28.10;;;;;;5059986;28;20148;-63
2022/07/19 12:21:25;;;;;;;3.73;1.73;;;34.20;28.30;;;;;;5059400;28;20403;-60
2022/07/19 12:24:17;;;;;;;3.42;1.70;;;34.20;27.70;;;;;;5059572;28;20093;-63
2022/07/19 12:26:55;;;;;;;5.38;1.80;;;34.30;27.90;;;;;;5053825;28;20499;-62
2022/07/19 12:29:33;;;;;;;3.83;1.77;;;34.30;27.60;;;;;;5057596;28;20413;-63
2022/07/19 12:32:02;;;;;;;3.10;2.03;;;34.40;28.10;;;;;;5058633;28;20158;-64
2022/07/19 12:34:29;;;;;;;3.13;1.67;;;34.40;27.80;;;;;;5057109;28;20029;-62
2022/07/19 12:36:55;;;;;;;3.50;1.75;;;34.40;28.00;;;;;;5057497;28;20124;-63
2022/07/19 12:39:24;;;;;;;1.92;1.75;;;34.50;28.00;;;;;;5055485;28;20166;-61
2022/07/19 12:41:53;;;;;;;3.13;2.00;;;34.50;27.70;;;;;;5056459;28;20086;-64
2022/07/19 12:44:19;;;;;;;2.78;2.03;;;34.60;27.40;;;;;;5052735;28;20052;-65
2022/07/19 12:46:45;;;;;;;9.05;2.00;;;34.60;27.40;;;;;;5051498;28;20425;-62
2022/07/19 12:49:10;;;;;;;2.72;1.65;;;34.60;27.50;;;;;;5055909;28;20033;-64
2022/07/19 12:51:42;;;;;;;2.05;1.70;;;34.70;27.40;;;;;;5055921;28;20056;-62